Terminal Aerodrome Forecast
Issued by NWS

Home | Current Version | Previous Version | Text Only | Print | Product List | Glossary On
Versions: 1 2 3 4 5 6 7 8 9 10 11 12 13 14 15 16 17 18 19 20 21 22 23 24 25 26 27 28 29 30 31 32
000
FTUS45 KGGW 242320
TAFOLF
TAF
KOLF 242320Z 2500/2524 VRB05KT P6SM SCT024 BKN070
     FM250400 33004KT 5SM -SN OVC025
     FM250800 33004KT P6SM OVC015
     FM251700 23006KT 2SM -SN SCT003 OVC010
     FM252200 27010KT P6SM BKN020=

USA.gov is the U.S. government's official web portal to all federal, state and local government web resources and services.